Arrowhead, Minnesota
Current Conditions -  °F | °C
As of 10:16 AM on Friday 21 Nov 2014 (Local Time) from KCOQ Reporting Station
Clear Clear  
Wind Chill:   Ceiling: Unl
Heat Index: 16°   Visibility: 10mi
Dew Point:   Wind: 15mph
Humidity: 68%   Direction: 180°S
Pressure: 30.03"   Gusts: 20mph
Location:  46.8211°N, 92.6871°W
Report Text: KCOQ 211616Z AUTO 18013G17KT 10SM CLR M09/M14 A3003 RMK AO2
Loading
Personal Weather Stations






























Interactive Weather Map New forecast layout! Learn more

10-Day Weather Forecast

Advertisements
Track Severe Weather on mobile